createdAt,value
2019-05-05T00:02:42.413Z,77.52
2019-05-05T00:05:21.218Z,77.72
2019-05-05T00:07:54.152Z,76.33
2019-05-05T00:10:36.469Z,76.16
2019-05-05T00:13:15.266Z,76.91
2019-05-05T00:16:04.698Z,78.41
2019-05-05T00:18:37.642Z,77.86
2019-05-05T00:21:09.150Z,77.07
2019-05-05T00:23:40.460Z,77.80
2019-05-05T00:26:11.975Z,77.41
2019-05-05T00:28:44.770Z,78.05
2019-05-05T00:31:16.445Z,78.71
2019-05-05T00:33:48.799Z,78.77
2019-05-05T00:36:20.919Z,78.16
2019-05-05T00:38:52.253Z,78.59
2019-05-05T00:41:25.356Z,78.42
2019-05-05T00:43:56.948Z,78.03
2019-05-05T00:46:55.003Z,77.68
2019-05-05T00:49:27.516Z,78.00
2019-05-05T00:51:59.636Z,78.38
2019-05-05T00:54:30.977Z,77.96
2019-05-05T00:57:04.310Z,76.94
2019-05-05T00:59:35.209Z,78.16
2019-05-05T01:02:17.650Z,78.34
2019-05-05T01:04:58.972Z,78.19
2019-05-05T01:07:30.567Z,77.91
2019-05-05T01:10:01.770Z,79.21
2019-05-05T01:12:34.864Z,79.19
2019-05-05T01:15:07.337Z,79.63
2019-05-05T01:17:42.650Z,78.80
2019-05-05T01:20:14.626Z,78.70
2019-05-05T01:22:46.080Z,78.23
2019-05-05T01:25:17.377Z,77.69
2019-05-05T01:27:48.883Z,78.67
2019-05-05T01:30:25.549Z,78.16
2019-05-05T01:33:02.327Z,78.39
2019-05-05T01:35:34.230Z,77.34
2019-05-05T01:38:11.062Z,78.04
2019-05-05T01:40:56.349Z,77.83
2019-05-05T01:43:27.551Z,78.74
2019-05-05T01:45:59.597Z,77.97
2019-05-05T01:48:30.800Z,78.29
2019-05-05T01:51:01.991Z,77.66
2019-05-05T01:53:34.971Z,78.36
2019-05-05T01:56:06.655Z,78.58
2019-05-05T01:58:37.888Z,78.52
2019-05-05T02:01:09.310Z,76.92
2019-05-05T02:03:40.890Z,76.54
2019-05-05T02:06:14.250Z,76.37
2019-05-05T02:08:45.597Z,76.99
2019-05-05T02:11:16.795Z,76.21
2019-05-05T02:13:48.145Z,76.79
2019-05-05T02:16:19.566Z,76.18
2019-05-05T02:18:51.586Z,76.34
2019-05-05T02:21:24.764Z,76.46
2019-05-05T02:24:07.133Z,77.00
2019-05-05T02:27:05.504Z,77.78
2019-05-05T02:30:32.085Z,77.26
2019-05-05T02:33:35.374Z,75.55
2019-05-05T02:36:35.615Z,76.30
2019-05-05T02:39:35.348Z,77.01
2019-05-05T02:42:35.486Z,75.20
2019-05-05T02:46:00.230Z,74.28
2019-05-05T02:48:57.693Z,76.15
2019-05-05T02:51:49.735Z,77.23
2019-05-05T02:54:33.881Z,78.49
2019-05-05T02:57:05.190Z,76.47
2019-05-05T02:59:46.285Z,78.13
2019-05-05T03:02:21.317Z,78.26
2019-05-05T03:04:53.680Z,79.20
2019-05-05T03:07:26.277Z,80.48
2019-05-05T03:09:58.955Z,79.33
2019-05-05T03:12:34.492Z,78.95
2019-05-05T03:15:06.150Z,77.91
2019-05-05T03:17:37.827Z,77.38
2019-05-05T03:20:09.450Z,78.69
2019-05-05T03:22:43.357Z,78.46
2019-05-05T03:25:14.583Z,79.31
2019-05-05T03:27:45.782Z,80.73
2019-05-05T03:30:17.749Z,81.28
2019-05-05T03:32:50.039Z,82.23
2019-05-05T03:35:21.604Z,82.59
2019-05-05T03:37:54.490Z,81.12
2019-05-05T03:40:28.922Z,80.61
2019-05-05T03:43:05.150Z,79.90
2019-05-05T03:45:47.916Z,80.34
2019-05-05T03:48:19.418Z,81.25
2019-05-05T03:50:54.036Z,82.29
2019-05-05T03:53:28.267Z,82.18
2019-05-05T03:56:00.032Z,81.62
2019-05-05T03:58:31.567Z,81.38
2019-05-05T04:01:36.791Z,81.20
2019-05-05T04:04:27.442Z,80.46
2019-05-05T04:06:59.021Z,80.95
2019-05-05T04:09:30.672Z,81.02
2019-05-05T04:12:04.261Z,81.45
2019-05-05T04:14:35.020Z,81.58
2019-05-05T04:17:37.045Z,83.21
2019-05-05T04:20:29.021Z,84.73
2019-05-05T04:23:00.337Z,85.49
2019-05-05T04:25:31.547Z,85.74
2019-05-05T04:28:04.392Z,85.43
2019-05-05T04:30:35.861Z,85.55
2019-05-05T04:33:07.246Z,84.92
2019-05-05T04:35:38.543Z,85.58
2019-05-05T04:38:09.894Z,85.73
2019-05-05T04:40:43.425Z,85.55
2019-05-05T04:43:14.482Z,85.62
2019-05-05T04:45:45.967Z,86.58
2019-05-05T04:48:26.539Z,86.21
2019-05-05T04:51:07.034Z,86.42
2019-05-05T04:53:57.275Z,87.19
2019-05-05T04:56:30.081Z,87.66
2019-05-05T04:59:03.845Z,88.94
2019-05-05T05:01:35.013Z,88.42
2019-05-05T05:04:25.523Z,88.34
2019-05-05T05:06:58.004Z,87.77
2019-05-05T05:09:29.684Z,87.07
2019-05-05T05:12:01.322Z,87.14
2019-05-05T05:14:33.811Z,87.40
2019-05-05T05:17:08.526Z,86.26
2019-05-05T05:19:43.704Z,86.20
2019-05-05T05:22:15.119Z,85.86
2019-05-05T05:24:46.859Z,85.46
2019-05-05T05:27:18.266Z,83.66
2019-05-05T05:29:49.909Z,84.38
2019-05-05T05:32:21.109Z,83.46
2019-05-05T05:34:54.272Z,83.17
2019-05-05T05:37:25.665Z,84.08
2019-05-05T05:40:14.338Z,84.34
2019-05-05T05:42:45.007Z,83.71
2019-05-05T05:45:30.222Z,83.36
2019-05-05T05:48:10.808Z,83.49
2019-05-05T05:50:46.097Z,83.98
2019-05-05T05:53:17.580Z,84.31
2019-05-05T05:55:48.808Z,84.73
2019-05-05T05:58:20.929Z,84.36
2019-05-05T06:00:55.055Z,84.47
2019-05-05T06:03:26.435Z,84.69
2019-05-05T06:05:57.821Z,84.44
2019-05-05T06:08:30.013Z,84.47
2019-05-05T06:11:01.555Z,84.45
2019-05-05T06:13:33.621Z,84.54
2019-05-05T06:16:05.018Z,86.03
2019-05-05T06:18:37.405Z,86.03
2019-05-05T06:21:08.615Z,86.04
2019-05-05T06:23:40.088Z,86.63
2019-05-05T06:26:11.311Z,86.35
2019-05-05T06:28:44.762Z,86.62
2019-05-05T06:31:16.117Z,86.18
2019-05-05T06:33:47.691Z,86.29
2019-05-05T06:36:18.957Z,87.00
2019-05-05T06:38:50.241Z,87.83
2019-05-05T06:41:46.592Z,87.18
2019-05-05T06:44:37.835Z,86.94
2019-05-05T06:47:14.733Z,87.11
2019-05-05T06:49:46.022Z,86.96
2019-05-05T06:52:17.317Z,86.64
2019-05-05T06:54:48.539Z,85.29
2019-05-05T06:57:20.000Z,85.47
2019-05-05T06:59:51.386Z,85.79
2019-05-05T07:02:23.805Z,84.36
2019-05-05T07:04:55.724Z,85.39
2019-05-05T07:07:26.954Z,85.49
2019-05-05T07:09:58.505Z,85.12
2019-05-05T07:12:30.117Z,84.04
2019-05-05T07:15:04.043Z,84.66
2019-05-05T07:17:34.769Z,84.63
2019-05-05T07:20:06.280Z,84.71
2019-05-05T07:22:37.586Z,84.52
2019-05-05T07:25:09.193Z,83.15
2019-05-05T07:27:44.066Z,83.15
2019-05-05T07:30:15.711Z,82.75
2019-05-05T07:32:47.301Z,82.47
2019-05-05T07:35:56.063Z,83.33
2019-05-05T07:38:19.471Z,83.00
2019-05-05T07:40:54.513Z,82.59
2019-05-05T07:43:25.900Z,82.17
2019-05-05T07:45:57.143Z,81.03
2019-05-05T07:48:28.384Z,81.24
2019-05-05T07:51:04.462Z,80.93
2019-05-05T07:53:33.499Z,78.68
2019-05-05T07:56:07.601Z,79.83
2019-05-05T07:58:38.177Z,80.57
2019-05-05T08:01:09.391Z,77.66
2019-05-05T08:03:40.630Z,78.11
2019-05-05T08:06:11.930Z,78.24
2019-05-05T08:08:44.264Z,78.79
2019-05-05T08:11:16.107Z,79.60
2019-05-05T08:13:47.426Z,79.86
2019-05-05T08:16:56.327Z,80.35
2019-05-05T08:19:49.505Z,78.22
2019-05-05T08:22:20.793Z,79.06
2019-05-05T08:24:59.209Z,79.00
2019-05-05T08:27:58.223Z,79.46
2019-05-05T08:31:07.002Z,79.34
2019-05-05T08:33:39.079Z,79.66
2019-05-05T08:36:10.563Z,79.67
2019-05-05T08:38:43.979Z,79.19
2019-05-05T08:41:14.939Z,77.27
2019-05-05T08:43:46.558Z,78.36
2019-05-05T08:46:18.281Z,78.54
2019-05-05T08:48:49.532Z,78.65
2019-05-05T08:51:20.951Z,78.14
2019-05-05T08:53:54.421Z,77.87
2019-05-05T08:56:26.902Z,78.75
2019-05-05T08:58:58.304Z,77.03
2019-05-05T09:01:29.645Z,75.81
2019-05-05T09:04:01.245Z,76.57
2019-05-05T09:06:34.191Z,76.85
2019-05-05T09:09:07.363Z,78.03
2019-05-05T09:11:38.755Z,75.54
2019-05-05T09:14:10.171Z,74.36
2019-05-05T09:16:41.447Z,75.47
2019-05-05T09:19:16.549Z,73.26
2019-05-05T09:21:47.790Z,73.04
2019-05-05T09:24:34.160Z,72.40
2019-05-05T09:27:27.953Z,71.65
2019-05-05T09:29:57.600Z,72.23
2019-05-05T09:32:29.055Z,71.99
2019-05-05T09:35:00.371Z,70.77
2019-05-05T09:37:31.603Z,69.38
2019-05-05T09:40:09.678Z,70.49
2019-05-05T09:42:41.160Z,70.49
2019-05-05T09:45:13.996Z,72.38
2019-05-05T09:47:45.528Z,72.24
2019-05-05T09:50:23.746Z,72.17
2019-05-05T09:52:55.140Z,70.92
2019-05-05T09:55:26.520Z,70.59
2019-05-05T09:57:57.864Z,72.03
2019-05-05T10:00:30.716Z,71.83
2019-05-05T10:03:03.830Z,72.14
2019-05-05T10:05:35.324Z,68.90
2019-05-05T10:08:06.600Z,70.38
2019-05-05T10:10:37.965Z,70.88
2019-05-05T10:13:09.290Z,70.92
2019-05-05T10:15:41.088Z,71.38
2019-05-05T10:18:14.333Z,71.77
2019-05-05T10:20:45.896Z,71.43
2019-05-05T10:23:17.110Z,72.21
2019-05-05T10:25:50.443Z,70.45
2019-05-05T10:28:24.105Z,69.64
2019-05-05T10:30:55.806Z,71.92
2019-05-05T10:33:27.118Z,71.31
2019-05-05T10:35:58.373Z,70.77
2019-05-05T10:38:30.441Z,69.04
2019-05-05T10:41:01.810Z,70.67
2019-05-05T10:43:34.344Z,69.08
2019-05-05T10:46:05.754Z,70.14
2019-05-05T10:48:37.052Z,70.35
2019-05-05T10:51:08.379Z,70.28
2019-05-05T10:53:39.793Z,70.70
2019-05-05T10:56:11.118Z,69.66
2019-05-05T10:58:44.102Z,70.63
2019-05-05T11:01:15.341Z,70.96
2019-05-05T11:03:46.966Z,70.91
2019-05-05T11:06:19.309Z,71.43
2019-05-05T11:08:50.693Z,70.51
2019-05-05T11:11:23.829Z,70.14
2019-05-05T11:13:54.996Z,70.45
2019-05-05T11:16:26.554Z,70.77
2019-05-05T11:18:57.772Z,71.66
2019-05-05T11:21:29.004Z,70.72
2019-05-05T11:24:00.243Z,70.04
2019-05-05T11:26:31.498Z,70.43
2019-05-05T11:29:04.240Z,69.73
2019-05-05T11:31:35.987Z,70.74
2019-05-05T11:34:20.088Z,69.66
2019-05-05T11:37:12.716Z,70.36
2019-05-05T11:39:44.558Z,69.48
2019-05-05T11:42:16.029Z,70.53
2019-05-05T11:44:48.954Z,71.14
2019-05-05T11:47:20.153Z,71.83
2019-05-05T11:49:54.516Z,71.71
2019-05-05T11:52:25.018Z,74.17
2019-05-05T11:55:08.915Z,72.78
2019-05-05T11:57:29.092Z,73.01
2019-05-05T12:00:00.300Z,73.58
2019-05-05T12:02:33.484Z,74.51
2019-05-05T12:05:05.441Z,75.33
2019-05-05T12:07:36.712Z,74.32
2019-05-05T12:10:15.246Z,74.31
2019-05-05T12:12:46.727Z,74.62
2019-05-05T12:15:18.261Z,75.24
2019-05-05T12:17:49.622Z,75.01
2019-05-05T12:20:27.363Z,75.27
2019-05-05T12:22:58.541Z,75.93
2019-05-05T12:25:57.626Z,75.96
2019-05-05T12:28:37.162Z,75.44
2019-05-05T12:31:14.115Z,76.25
2019-05-05T12:33:45.992Z,76.29
2019-05-05T12:36:17.163Z,76.13
2019-05-05T12:38:48.448Z,75.00
2019-05-05T12:41:21.000Z,74.03
2019-05-05T12:43:54.826Z,73.01
2019-05-05T12:46:57.408Z,73.68
2019-05-05T12:49:28.989Z,74.42
2019-05-05T12:52:00.177Z,74.60
2019-05-05T12:54:33.490Z,75.88
2019-05-05T12:57:04.535Z,74.54
2019-05-05T12:59:36.016Z,75.79
2019-05-05T13:02:07.856Z,76.63
2019-05-05T13:04:39.200Z,75.24
2019-05-05T13:07:10.410Z,76.63
2019-05-05T13:09:44.097Z,77.08
2019-05-05T13:12:15.841Z,76.58
2019-05-05T13:14:47.534Z,76.79
2019-05-05T13:17:18.727Z,76.24
2019-05-05T13:19:56.376Z,75.89
2019-05-05T13:22:44.259Z,76.56
2019-05-05T13:25:28.520Z,75.95
2019-05-05T13:27:59.718Z,76.41
2019-05-05T13:30:30.904Z,76.52
2019-05-05T13:33:03.714Z,76.72
2019-05-05T13:35:36.642Z,76.48
2019-05-05T13:38:08.238Z,77.18
2019-05-05T13:40:39.497Z,76.15
2019-05-05T13:43:10.960Z,76.74
2019-05-05T13:45:58.582Z,76.42
2019-05-05T13:48:29.779Z,76.64
2019-05-05T13:51:04.308Z,75.41
2019-05-05T13:53:35.705Z,75.41
2019-05-05T13:56:11.918Z,75.65
2019-05-05T13:58:39.902Z,75.63
2019-05-05T14:01:11.812Z,76.37
2019-05-05T14:03:49.069Z,76.05
2019-05-05T14:06:20.461Z,75.14
2019-05-05T14:08:54.120Z,74.27
2019-05-05T14:11:25.229Z,73.47
2019-05-05T14:13:56.799Z,74.97
2019-05-05T14:16:28.599Z,74.30
2019-05-05T14:18:59.861Z,74.26
2019-05-05T14:21:31.240Z,75.27
2019-05-05T14:24:34.272Z,77.17
2019-05-05T14:27:05.902Z,76.73
2019-05-05T14:29:49.096Z,76.86
2019-05-05T14:32:30.216Z,77.68
2019-05-05T14:35:20.370Z,78.23
2019-05-05T14:37:54.552Z,77.49
2019-05-05T14:40:26.056Z,76.75
2019-05-05T14:42:57.353Z,76.32
2019-05-05T14:45:35.479Z,75.82
2019-05-05T14:48:13.957Z,75.81
2019-05-05T14:50:54.276Z,74.93
2019-05-05T14:53:32.101Z,73.79
2019-05-05T14:56:13.686Z,73.96
2019-05-05T14:58:45.148Z,74.76
2019-05-05T15:01:16.345Z,74.95
2019-05-05T15:03:53.423Z,74.62
2019-05-05T15:06:43.824Z,76.48
2019-05-05T15:09:24.672Z,74.20
2019-05-05T15:12:14.395Z,74.31
2019-05-05T15:14:47.282Z,75.48
2019-05-05T15:17:37.391Z,76.53
2019-05-05T15:20:15.812Z,77.33
2019-05-05T15:22:47.020Z,77.19
2019-05-05T15:25:18.228Z,77.46
2019-05-05T15:27:50.103Z,77.25
2019-05-05T15:30:24.171Z,76.06
2019-05-05T15:32:54.469Z,76.90
2019-05-05T15:35:25.677Z,77.80
2019-05-05T15:37:56.957Z,79.00
2019-05-05T15:40:28.167Z,78.56
2019-05-05T15:42:59.411Z,76.51
2019-05-05T15:45:33.985Z,76.40
2019-05-05T15:48:05.335Z,77.55
2019-05-05T15:50:40.313Z,78.00
2019-05-05T15:53:12.027Z,78.30
2019-05-05T15:55:43.291Z,78.38
2019-05-05T15:58:14.597Z,79.03
2019-05-05T16:00:47.843Z,79.42
2019-05-05T16:03:19.677Z,79.83
2019-05-05T16:05:57.258Z,79.33
2019-05-05T16:08:37.299Z,79.41
2019-05-05T16:11:14.373Z,80.90
2019-05-05T16:13:48.443Z,80.14
2019-05-05T16:16:38.591Z,79.51
2019-05-05T16:19:28.933Z,78.87
2019-05-05T16:22:05.292Z,80.60
2019-05-05T16:24:38.561Z,81.54
2019-05-05T16:27:21.131Z,80.99
2019-05-05T16:29:44.209Z,80.96
2019-05-05T16:32:21.820Z,80.11
2019-05-05T16:34:48.545Z,79.93
2019-05-05T16:37:19.866Z,81.34
2019-05-05T16:39:51.227Z,80.77
2019-05-05T16:42:23.993Z,80.92
2019-05-05T16:44:55.447Z,81.38
2019-05-05T16:47:27.015Z,81.35
2019-05-05T16:49:58.551Z,81.43
2019-05-05T16:52:35.269Z,82.33
2019-05-05T16:55:13.483Z,82.24
2019-05-05T16:57:46.571Z,82.64
2019-05-05T17:00:21.408Z,82.56
2019-05-05T17:02:53.358Z,83.61
2019-05-05T17:05:24.396Z,82.63
2019-05-05T17:07:58.510Z,83.11
2019-05-05T17:10:29.977Z,82.32
2019-05-05T17:13:06.953Z,82.54
2019-05-05T17:15:58.763Z,82.60
2019-05-05T17:18:44.763Z,81.83
2019-05-05T17:21:19.822Z,82.32
2019-05-05T17:23:51.183Z,83.08
2019-05-05T17:26:24.281Z,82.43
2019-05-05T17:28:55.668Z,83.05
2019-05-05T17:31:26.880Z,83.00
2019-05-05T17:33:58.087Z,83.22
2019-05-05T17:36:29.412Z,83.06
2019-05-05T17:39:00.746Z,82.72
2019-05-05T17:41:50.221Z,82.23
2019-05-05T17:44:29.195Z,81.92
2019-05-05T17:47:18.080Z,81.76
2019-05-05T17:50:04.002Z,82.10
2019-05-05T17:53:04.935Z,81.94
2019-05-05T17:55:37.801Z,82.28
2019-05-05T17:58:09.014Z,82.49
2019-05-05T18:00:49.124Z,82.47
2019-05-05T18:03:22.320Z,82.28
2019-05-05T18:06:16.950Z,82.68
2019-05-05T18:08:51.232Z,83.30
2019-05-05T18:11:39.217Z,83.10
2019-05-05T18:14:15.796Z,82.43
2019-05-05T18:16:46.987Z,83.55
2019-05-05T18:19:18.243Z,83.74
2019-05-05T18:21:49.550Z,83.51
2019-05-05T18:24:26.244Z,84.36
2019-05-05T18:26:57.508Z,84.46
2019-05-05T18:29:29.078Z,83.78
2019-05-05T18:32:04.208Z,83.81
2019-05-05T18:34:35.037Z,83.56
2019-05-05T18:37:06.649Z,82.70
2019-05-05T18:39:37.904Z,83.99
2019-05-05T18:42:16.047Z,84.13
2019-05-05T18:44:49.931Z,84.11
2019-05-05T18:47:24.866Z,83.36
2019-05-05T18:49:55.718Z,83.62
2019-05-05T18:52:27.015Z,83.36
2019-05-05T18:54:58.455Z,83.67
2019-05-05T18:57:29.784Z,84.15
2019-05-05T19:00:03.661Z,84.86
2019-05-05T19:02:54.038Z,85.93
2019-05-05T19:05:47.209Z,85.82
2019-05-05T19:08:28.417Z,85.45
2019-05-05T19:11:00.037Z,85.23
2019-05-05T19:13:31.294Z,85.77
2019-05-05T19:16:03.612Z,85.98
2019-05-05T19:18:34.946Z,85.56
2019-05-05T19:21:21.857Z,84.88
2019-05-05T19:23:54.173Z,85.10
2019-05-05T19:26:25.771Z,84.85
2019-05-05T19:28:56.988Z,84.14
2019-05-05T19:31:28.436Z,83.98
2019-05-05T19:33:59.805Z,83.87
2019-05-05T19:36:31.156Z,84.06
2019-05-05T19:39:04.094Z,83.94
2019-05-05T19:41:36.696Z,84.54
2019-05-05T19:44:07.945Z,86.22
2019-05-05T19:46:46.670Z,86.17
2019-05-05T19:49:18.820Z,86.14
2019-05-05T19:51:50.754Z,86.55
2019-05-05T19:54:21.944Z,86.07
2019-05-05T19:56:54.226Z,86.44
2019-05-05T19:59:25.597Z,85.69
2019-05-05T20:01:57.373Z,85.59
2019-05-05T20:04:29.353Z,85.12
2019-05-05T20:07:01.368Z,84.78
2019-05-05T20:09:34.082Z,84.82
2019-05-05T20:12:05.628Z,83.73
2019-05-05T20:14:36.843Z,84.02
2019-05-05T20:17:14.736Z,84.34
2019-05-05T20:19:46.332Z,83.78
2019-05-05T20:22:17.591Z,83.69
2019-05-05T20:24:48.821Z,83.91
2019-05-05T20:27:20.417Z,84.32
2019-05-05T20:29:51.946Z,84.57
2019-05-05T20:32:30.359Z,84.01
2019-05-05T20:35:33.852Z,84.39
2019-05-05T20:38:11.492Z,84.30
2019-05-05T20:40:44.346Z,83.88
2019-05-05T20:43:15.754Z,83.99
2019-05-05T20:45:47.417Z,84.00
2019-05-05T20:48:18.912Z,83.86
2019-05-05T20:50:52.161Z,83.46
2019-05-05T20:53:27.192Z,83.08
2019-05-05T20:55:58.448Z,82.86
2019-05-05T20:58:30.756Z,82.77
2019-05-05T21:01:04.251Z,83.25
2019-05-05T21:03:35.111Z,83.72
2019-05-05T21:06:06.493Z,83.22
2019-05-05T21:08:37.866Z,82.87
2019-05-05T21:11:09.130Z,83.72
2019-05-05T21:13:40.413Z,83.86
2019-05-05T21:16:14.000Z,84.27
2019-05-05T21:18:44.600Z,84.36
2019-05-05T21:21:20.945Z,83.93
2019-05-05T21:23:55.762Z,83.58
2019-05-05T21:26:50.675Z,83.48
2019-05-05T21:29:23.700Z,82.84
2019-05-05T21:31:55.825Z,82.74
2019-05-05T21:34:27.443Z,82.32
2019-05-05T21:36:58.800Z,82.39
2019-05-05T21:39:30.470Z,82.25
2019-05-05T21:42:04.464Z,81.86
2019-05-05T21:44:34.877Z,81.53
2019-05-05T21:47:06.402Z,81.49
2019-05-05T21:49:37.601Z,82.25
2019-05-05T21:52:15.307Z,83.04
2019-05-05T21:54:53.579Z,83.07
2019-05-05T21:57:37.923Z,82.76
2019-05-05T22:00:29.142Z,81.88
2019-05-05T22:03:04.361Z,80.96
2019-05-05T22:05:35.167Z,81.91
2019-05-05T22:08:07.032Z,82.37
2019-05-05T22:10:38.364Z,82.20
2019-05-05T22:13:09.842Z,82.68
2019-05-05T22:15:41.065Z,81.71
2019-05-05T22:18:14.462Z,81.40
2019-05-05T22:20:51.860Z,81.56
2019-05-05T22:23:25.144Z,80.98
2019-05-05T22:25:56.366Z,81.69
2019-05-05T22:28:28.573Z,80.18
2019-05-05T22:31:00.165Z,80.86
2019-05-05T22:33:33.984Z,81.36
2019-05-05T22:36:07.131Z,81.79
2019-05-05T22:38:38.686Z,81.52
2019-05-05T22:41:10.483Z,81.85
2019-05-05T22:43:41.832Z,82.58
2019-05-05T22:46:14.180Z,82.39
2019-05-05T22:48:46.499Z,82.62
2019-05-05T22:51:17.735Z,82.22
2019-05-05T22:53:49.000Z,82.25
2019-05-05T22:56:20.513Z,81.90
2019-05-05T22:58:54.688Z,82.33
2019-05-05T23:01:26.620Z,82.18
2019-05-05T23:04:24.002Z,81.43
2019-05-05T23:07:00.254Z,82.14
2019-05-05T23:09:31.622Z,82.47
2019-05-05T23:12:04.198Z,82.43
2019-05-05T23:14:36.104Z,82.34
2019-05-05T23:17:26.561Z,81.63
2019-05-05T23:20:09.379Z,82.82
2019-05-05T23:22:50.067Z,83.87
2019-05-05T23:25:29.920Z,83.64
2019-05-05T23:28:04.115Z,83.65
2019-05-05T23:30:41.621Z,83.26
2019-05-05T23:33:08.440Z,83.48
2019-05-05T23:35:39.832Z,83.17
2019-05-05T23:38:14.336Z,82.82
2019-05-05T23:40:45.827Z,83.21
2019-05-05T23:43:17.246Z,83.54
2019-05-05T23:45:48.643Z,83.19
2019-05-05T23:48:20.308Z,83.14
2019-05-05T23:50:54.170Z,83.27
2019-05-05T23:53:28.086Z,83.22
2019-05-05T23:55:59.677Z,82.70
2019-05-05T23:58:31.103Z,82.83
